createdAt,value
2023-02-09T00:02:17.566Z,39.43
2023-02-09T00:04:44.305Z,43.23
2023-02-09T00:07:10.811Z,37.07
2023-02-09T00:09:37.444Z,40.57
2023-02-09T00:12:22.621Z,35.90
2023-02-09T00:14:49.242Z,36.50
2023-02-09T00:17:15.865Z,42.40
2023-02-09T00:19:42.408Z,35.47
2023-02-09T00:22:08.903Z,35.67
2023-02-09T00:24:35.501Z,37.43
2023-02-09T00:27:02.044Z,36.27
2023-02-09T00:29:28.688Z,34.40
2023-02-09T00:31:55.297Z,29.00
2023-02-09T00:34:22.229Z,32.83
2023-02-09T00:36:48.811Z,27.40
2023-02-09T00:39:16.283Z,25.63
2023-02-09T00:42:01.551Z,23.60
2023-02-09T00:44:28.397Z,24.13
2023-02-09T00:46:54.930Z,19.30
2023-02-09T00:49:21.436Z,27.70
2023-02-09T00:51:48.026Z,26.47
2023-02-09T00:54:16.800Z,28.07
2023-02-09T00:56:45.097Z,22.67
2023-02-09T00:59:11.999Z,16.07
2023-02-09T01:01:39.114Z,18.83
2023-02-09T01:04:05.855Z,21.43
2023-02-09T01:06:32.881Z,23.63
2023-02-09T01:08:59.641Z,18.90
2023-02-09T01:11:28.199Z,19.60
2023-02-09T01:13:56.840Z,19.03
2023-02-09T01:16:24.008Z,20.10
2023-02-09T01:18:50.628Z,21.57
2023-02-09T01:21:19.620Z,14.93
2023-02-09T01:23:47.338Z,17.43
2023-02-09T01:26:16.030Z,19.73
2023-02-09T01:28:42.859Z,18.63
2023-02-09T01:31:22.615Z,19.10
2023-02-09T01:33:51.917Z,17.33
2023-02-09T01:36:23.768Z,21.63
2023-02-09T01:38:50.689Z,17.90
2023-02-09T01:41:17.635Z,22.37
2023-02-09T01:43:55.700Z,21.10
2023-02-09T01:46:24.032Z,24.03
2023-02-09T01:48:55.552Z,16.13
2023-02-09T01:51:22.682Z,17.23
2023-02-09T01:53:50.316Z,19.20
2023-02-09T01:56:20.467Z,16.80
2023-02-09T01:58:48.366Z,18.60
2023-02-09T02:01:15.252Z,17.97
2023-02-09T02:03:41.996Z,18.87
2023-02-09T02:06:14.538Z,16.20
2023-02-09T02:08:53.734Z,15.07
2023-02-09T02:11:21.315Z,22.30
2023-02-09T02:13:48.016Z,21.97
2023-02-09T02:16:29.939Z,18.33
2023-02-09T02:19:30.161Z,17.07
2023-02-09T02:21:56.694Z,15.77
2023-02-09T02:25:08.123Z,17.93
2023-02-09T02:27:48.782Z,16.37
2023-02-09T02:30:26.814Z,15.53
2023-02-09T02:32:59.243Z,15.83
2023-02-09T02:35:51.415Z,14.83
2023-02-09T02:38:21.118Z,12.83
2023-02-09T02:41:09.658Z,17.20
2023-02-09T02:43:43.227Z,15.67
2023-02-09T02:46:18.791Z,19.30
2023-02-09T02:48:54.404Z,19.93
2023-02-09T02:51:39.597Z,19.43
2023-02-09T02:54:10.682Z,16.60
2023-02-09T02:56:40.561Z,19.53
2023-02-09T02:59:11.246Z,16.47
2023-02-09T03:01:41.564Z,17.90
2023-02-09T03:04:08.750Z,17.60
2023-02-09T03:06:37.435Z,17.80
2023-02-09T03:09:04.599Z,19.97
2023-02-09T03:11:35.503Z,14.63
2023-02-09T03:14:08.807Z,21.70
2023-02-09T03:16:47.234Z,24.10
2023-02-09T03:19:20.240Z,21.63
2023-02-09T03:21:51.472Z,16.80
2023-02-09T03:24:52.105Z,21.80
2023-02-09T03:27:29.178Z,17.20
2023-02-09T03:29:58.949Z,19.23
2023-02-09T03:32:26.385Z,19.43
2023-02-09T03:34:54.496Z,17.20
2023-02-09T03:37:21.288Z,23.37
2023-02-09T03:39:47.889Z,15.20
2023-02-09T03:42:14.517Z,22.53
2023-02-09T03:44:41.174Z,22.93
2023-02-09T03:47:09.244Z,23.83
2023-02-09T03:49:39.309Z,20.73
2023-02-09T03:52:07.540Z,16.10
2023-02-09T03:54:34.290Z,20.80
2023-02-09T03:57:01.315Z,19.37
2023-02-09T03:59:28.600Z,25.80
2023-02-09T04:01:57.158Z,23.37
2023-02-09T04:04:24.836Z,23.70
2023-02-09T04:06:51.538Z,19.97
2023-02-09T04:09:18.233Z,22.60
2023-02-09T04:11:44.931Z,21.80
2023-02-09T04:14:11.549Z,21.27
2023-02-09T04:16:38.237Z,22.90
2023-02-09T04:19:05.845Z,17.50
2023-02-09T04:21:32.917Z,20.67
2023-02-09T04:23:59.504Z,22.70
2023-02-09T04:26:26.069Z,26.63
2023-02-09T04:28:52.645Z,22.57
2023-02-09T04:31:19.370Z,21.73
2023-02-09T04:33:46.187Z,19.53
2023-02-09T04:36:12.923Z,23.73
2023-02-09T04:38:39.657Z,20.80
2023-02-09T04:41:06.380Z,20.90
2023-02-09T04:43:33.503Z,22.40
2023-02-09T04:46:00.676Z,24.30
2023-02-09T04:48:28.430Z,24.47
2023-02-09T04:50:55.098Z,21.03
2023-02-09T04:53:22.169Z,21.93
2023-02-09T04:55:48.998Z,21.00
2023-02-09T04:58:36.160Z,28.93
2023-02-09T05:01:03.959Z,23.03
2023-02-09T05:03:30.902Z,20.87
2023-02-09T05:05:59.075Z,24.37
2023-02-09T05:08:25.716Z,20.63
2023-02-09T05:10:53.134Z,18.90
2023-02-09T05:13:20.904Z,17.40
2023-02-09T05:15:47.924Z,20.97
2023-02-09T05:18:14.620Z,20.53
2023-02-09T05:20:43.006Z,22.00
2023-02-09T05:23:10.347Z,29.37
2023-02-09T05:25:37.296Z,19.53
2023-02-09T05:28:04.417Z,30.73
2023-02-09T05:30:31.232Z,21.40
2023-02-09T05:32:58.446Z,19.83
2023-02-09T05:35:25.501Z,20.00
2023-02-09T05:37:52.074Z,19.93
2023-02-09T05:40:18.820Z,26.50
2023-02-09T05:42:45.549Z,21.67
2023-02-09T05:45:12.222Z,24.67
2023-02-09T05:47:38.776Z,22.23
2023-02-09T05:50:05.803Z,31.17
2023-02-09T05:52:32.439Z,29.30
2023-02-09T05:54:59.150Z,19.30
2023-02-09T05:57:25.761Z,23.67
2023-02-09T05:59:52.322Z,22.87
2023-02-09T06:02:19.060Z,28.73
2023-02-09T06:04:45.676Z,27.30
2023-02-09T06:07:12.254Z,25.10
2023-02-09T06:09:38.859Z,25.73
2023-02-09T06:12:05.630Z,33.60
2023-02-09T06:14:32.319Z,23.57
2023-02-09T06:16:59.026Z,24.17
2023-02-09T06:19:25.768Z,29.97
2023-02-09T06:21:52.395Z,28.10
2023-02-09T06:24:19.063Z,29.23
2023-02-09T06:26:45.709Z,24.60
2023-02-09T06:29:12.442Z,32.00
2023-02-09T06:31:41.750Z,31.80
2023-02-09T06:34:09.113Z,33.47
2023-02-09T06:36:35.705Z,27.20
2023-02-09T06:39:02.371Z,27.03
2023-02-09T06:41:28.965Z,31.03
2023-02-09T06:43:55.554Z,28.47
2023-02-09T06:46:22.327Z,32.93
2023-02-09T06:48:49.402Z,25.23
2023-02-09T06:51:17.310Z,31.33
2023-02-09T06:53:44.630Z,28.07
2023-02-09T06:56:12.211Z,25.17
2023-02-09T06:58:41.078Z,25.70
2023-02-09T07:01:12.416Z,28.47
2023-02-09T07:03:39.326Z,33.60
2023-02-09T07:06:12.080Z,26.83
2023-02-09T07:08:39.571Z,40.50
2023-02-09T07:11:09.201Z,32.43
2023-02-09T07:13:36.172Z,34.17
2023-02-09T07:16:04.724Z,30.63
2023-02-09T07:18:31.473Z,30.03
2023-02-09T07:21:01.306Z,33.70
2023-02-09T07:23:28.469Z,31.03
2023-02-09T07:25:55.121Z,32.07
2023-02-09T07:28:21.925Z,36.50
2023-02-09T07:30:50.218Z,40.13
2023-02-09T07:33:17.023Z,36.87
2023-02-09T07:35:43.682Z,28.03
2023-02-09T07:38:10.996Z,28.17
2023-02-09T07:40:38.652Z,36.17
2023-02-09T07:43:06.375Z,34.87
2023-02-09T07:45:33.603Z,30.10
2023-02-09T07:48:00.369Z,34.80
2023-02-09T07:50:27.126Z,29.93
2023-02-09T07:52:54.982Z,34.90
2023-02-09T07:55:22.217Z,55.83
2023-02-09T07:57:49.371Z,40.13
2023-02-09T08:00:20.201Z,38.83
2023-02-09T08:02:47.410Z,39.80
2023-02-09T08:05:31.129Z,30.80
2023-02-09T08:07:58.227Z,26.77
2023-02-09T08:10:26.167Z,32.47
2023-02-09T08:12:59.778Z,33.33
2023-02-09T08:15:56.156Z,27.63
2023-02-09T08:18:25.883Z,30.97
2023-02-09T08:20:53.182Z,29.37
2023-02-09T08:23:23.905Z,30.60
2023-02-09T08:25:51.752Z,27.60
2023-02-09T08:28:31.881Z,30.90
2023-02-09T08:31:05.286Z,26.80
2023-02-09T08:33:32.118Z,29.47
2023-02-09T08:35:58.695Z,28.30
2023-02-09T08:38:25.362Z,26.17
2023-02-09T08:40:51.980Z,28.77
2023-02-09T08:43:18.642Z,25.90
2023-02-09T08:45:45.538Z,31.10
2023-02-09T08:48:12.420Z,27.37
2023-02-09T08:50:39.797Z,27.90
2023-02-09T08:53:07.187Z,32.20
2023-02-09T08:55:34.630Z,30.03
2023-02-09T08:58:01.652Z,29.80
2023-02-09T09:00:28.435Z,35.67
2023-02-09T09:02:55.155Z,28.90
2023-02-09T09:05:21.812Z,27.77
2023-02-09T09:07:48.491Z,30.23
2023-02-09T09:10:15.140Z,28.10
2023-02-09T09:12:41.896Z,26.10
2023-02-09T09:15:08.906Z,35.43
2023-02-09T09:17:35.498Z,25.63
2023-02-09T09:20:02.309Z,27.73
2023-02-09T09:22:28.993Z,30.00
2023-02-09T09:24:55.756Z,30.40
2023-02-09T09:27:22.484Z,33.88
2023-02-09T09:29:49.672Z,30.20
2023-02-09T09:32:16.517Z,28.25
2023-02-09T09:34:43.511Z,25.80
2023-02-09T09:37:10.117Z,24.60
2023-02-09T09:39:36.748Z,30.42
2023-02-09T09:42:06.064Z,29.55
2023-02-09T09:44:38.586Z,24.08
2023-02-09T09:47:10.466Z,27.25
2023-02-09T09:49:37.669Z,29.52
2023-02-09T09:52:13.666Z,26.08
2023-02-09T09:54:41.159Z,26.65
2023-02-09T09:57:29.081Z,23.95
2023-02-09T09:59:56.426Z,39.88
2023-02-09T10:02:27.477Z,24.67
2023-02-09T10:05:14.985Z,28.23
2023-02-09T10:07:43.613Z,23.33
2023-02-09T10:10:28.666Z,25.17
2023-02-09T10:12:56.063Z,20.98
2023-02-09T10:15:33.960Z,24.67
2023-02-09T10:18:00.758Z,29.02
2023-02-09T10:20:53.462Z,25.50
2023-02-09T10:23:30.319Z,23.02
2023-02-09T10:26:22.478Z,27.45
2023-02-09T10:28:55.861Z,20.65
2023-02-09T10:31:40.713Z,21.90
2023-02-09T10:34:31.412Z,29.65
2023-02-09T10:37:18.555Z,20.58
2023-02-09T10:39:46.786Z,23.25
2023-02-09T10:42:18.811Z,24.75
2023-02-09T10:44:55.374Z,19.38
2023-02-09T10:47:25.000Z,15.35
2023-02-09T10:49:59.945Z,21.10
2023-02-09T10:52:32.421Z,22.65
2023-02-09T10:55:22.286Z,19.77
2023-02-09T10:57:48.981Z,17.63
2023-02-09T11:00:15.562Z,19.27
2023-02-09T11:02:48.255Z,24.10
2023-02-09T11:05:20.908Z,20.55
2023-02-09T11:08:21.047Z,20.02
2023-02-09T11:11:08.367Z,21.65
2023-02-09T11:13:35.252Z,21.42
2023-02-09T11:16:11.971Z,18.55
2023-02-09T11:18:39.213Z,19.23
2023-02-09T11:21:08.725Z,21.75
2023-02-09T11:24:21.750Z,19.90
2023-02-09T11:26:58.209Z,24.48
2023-02-09T11:29:42.527Z,16.25
2023-02-09T11:32:34.765Z,19.60
2023-02-09T11:35:06.597Z,18.42
2023-02-09T11:38:01.655Z,22.98
2023-02-09T11:40:40.118Z,19.20
2023-02-09T11:43:31.151Z,20.65
2023-02-09T11:46:04.291Z,21.02
2023-02-09T11:48:41.119Z,19.83
2023-02-09T11:51:11.726Z,16.75
2023-02-09T11:53:59.846Z,15.65
2023-02-09T11:56:28.001Z,25.02
2023-02-09T11:58:57.639Z,19.25
2023-02-09T12:01:46.354Z,17.58
2023-02-09T12:04:21.593Z,19.40
2023-02-09T12:06:54.881Z,19.70
2023-02-09T12:09:21.424Z,19.48
2023-02-09T12:12:05.340Z,18.40
2023-02-09T12:14:55.986Z,19.95
2023-02-09T12:17:46.757Z,21.60
2023-02-09T12:20:36.632Z,18.98
2023-02-09T12:23:26.282Z,23.08
2023-02-09T12:26:00.961Z,24.00
2023-02-09T12:28:27.645Z,21.52
2023-02-09T12:30:58.902Z,21.70
2023-02-09T12:33:27.065Z,22.55
2023-02-09T12:36:10.482Z,19.73
2023-02-09T12:38:56.759Z,19.73
2023-02-09T12:41:25.116Z,14.80
2023-02-09T12:44:11.781Z,20.65
2023-02-09T12:46:44.552Z,17.65
2023-02-09T12:49:22.236Z,16.83
2023-02-09T12:51:54.908Z,19.17
2023-02-09T12:54:40.346Z,18.10
2023-02-09T12:57:16.130Z,18.15
2023-02-09T13:00:00.998Z,18.38
2023-02-09T13:02:50.253Z,16.80
2023-02-09T13:05:37.984Z,14.73
2023-02-09T13:08:15.714Z,21.23
2023-02-09T13:10:48.115Z,20.27
2023-02-09T13:13:21.822Z,17.67
2023-02-09T13:16:05.459Z,20.60
2023-02-09T13:18:53.737Z,17.65
2023-02-09T13:21:35.501Z,21.85
2023-02-09T13:24:39.685Z,20.67
2023-02-09T13:27:18.044Z,18.35
2023-02-09T13:29:58.029Z,19.60
2023-02-09T13:32:33.422Z,17.63
2023-02-09T13:35:14.699Z,16.60
2023-02-09T13:37:58.048Z,19.25
2023-02-09T13:40:28.089Z,17.35
2023-02-09T13:42:58.742Z,21.15
2023-02-09T13:45:26.944Z,16.67
2023-02-09T13:47:54.832Z,17.85
2023-02-09T13:50:23.897Z,20.50
2023-02-09T13:52:51.141Z,24.75
2023-02-09T13:55:17.871Z,22.40
2023-02-09T13:57:48.509Z,20.17
2023-02-09T14:00:39.961Z,26.42
2023-02-09T14:03:12.649Z,24.15
2023-02-09T14:05:42.329Z,20.83
2023-02-09T14:08:09.451Z,23.15
2023-02-09T14:10:36.194Z,22.67
2023-02-09T14:13:41.720Z,23.50
2023-02-09T14:16:08.824Z,19.27
2023-02-09T14:18:55.814Z,20.63
2023-02-09T14:21:32.495Z,20.70
2023-02-09T14:23:59.062Z,20.45
2023-02-09T14:26:32.740Z,22.02
2023-02-09T14:29:02.398Z,15.30
2023-02-09T14:31:29.040Z,19.00
2023-02-09T14:33:56.424Z,14.75
2023-02-09T14:36:30.465Z,16.83
2023-02-09T14:39:17.218Z,17.02
2023-02-09T14:41:59.358Z,19.58
2023-02-09T14:44:26.833Z,17.00
2023-02-09T14:46:56.047Z,17.40
2023-02-09T14:49:23.349Z,24.83
2023-02-09T14:51:57.243Z,16.02
2023-02-09T14:54:26.394Z,17.73
2023-02-09T14:56:54.686Z,23.27
2023-02-09T14:59:22.137Z,17.33
2023-02-09T15:01:51.899Z,23.27
2023-02-09T15:04:19.002Z,17.75
2023-02-09T15:06:48.435Z,23.52
2023-02-09T15:09:22.276Z,22.50
2023-02-09T15:12:07.244Z,19.45
2023-02-09T15:14:37.816Z,19.20
2023-02-09T15:17:12.251Z,22.80
2023-02-09T15:19:38.946Z,18.63
2023-02-09T15:22:07.836Z,20.42
2023-02-09T15:24:37.404Z,22.50
2023-02-09T15:27:04.142Z,16.60
2023-02-09T15:29:30.964Z,21.25
2023-02-09T15:31:57.614Z,19.25
2023-02-09T15:34:24.292Z,21.85
2023-02-09T15:36:51.120Z,19.45
2023-02-09T15:39:21.601Z,17.80
2023-02-09T15:42:06.749Z,23.27
2023-02-09T15:44:52.020Z,24.63
2023-02-09T15:47:37.567Z,26.77
2023-02-09T15:50:04.535Z,23.88
2023-02-09T15:52:31.353Z,21.65
2023-02-09T15:54:58.009Z,22.90
2023-02-09T15:57:25.589Z,21.25
2023-02-09T15:59:52.176Z,20.67
2023-02-09T16:02:19.435Z,20.15
2023-02-09T16:04:46.421Z,21.88
2023-02-09T16:07:14.594Z,21.80
2023-02-09T16:09:43.456Z,21.40
2023-02-09T16:12:11.607Z,20.67
2023-02-09T16:14:40.849Z,22.75
2023-02-09T16:17:08.175Z,21.50
2023-02-09T16:19:35.075Z,25.27
2023-02-09T16:22:05.785Z,18.75
2023-02-09T16:24:34.270Z,24.02
2023-02-09T16:27:02.796Z,20.27
2023-02-09T16:29:29.474Z,25.58
2023-02-09T16:31:56.189Z,19.92
2023-02-09T16:34:22.885Z,19.08
2023-02-09T16:36:49.650Z,19.27
2023-02-09T16:39:20.800Z,23.80
2023-02-09T16:41:49.672Z,22.58
2023-02-09T16:44:20.846Z,19.75
2023-02-09T16:46:50.006Z,23.92
2023-02-09T16:49:31.327Z,21.67
2023-02-09T16:52:00.996Z,23.50
2023-02-09T16:54:29.032Z,25.80
2023-02-09T16:56:56.666Z,23.95
2023-02-09T16:59:23.496Z,27.38
2023-02-09T17:01:50.389Z,19.75
2023-02-09T17:04:17.343Z,23.00
2023-02-09T17:06:45.372Z,20.30
2023-02-09T17:09:18.302Z,27.35
2023-02-09T17:11:44.978Z,20.70
2023-02-09T17:14:12.658Z,29.50
2023-02-09T17:16:43.389Z,25.75
2023-02-09T17:19:14.090Z,30.98
2023-02-09T17:21:41.324Z,33.63
2023-02-09T17:24:14.509Z,36.95
2023-02-09T17:26:41.892Z,31.90
2023-02-09T17:29:10.366Z,30.17
2023-02-09T17:31:51.950Z,34.58
2023-02-09T17:34:20.297Z,24.77
2023-02-09T17:36:47.007Z,27.20
2023-02-09T17:39:18.975Z,31.95
2023-02-09T17:41:46.776Z,33.58
2023-02-09T17:44:26.476Z,30.38
2023-02-09T17:46:58.580Z,27.77
2023-02-09T17:49:27.117Z,25.45
2023-02-09T17:51:54.094Z,26.65
2023-02-09T17:54:21.062Z,24.77
2023-02-09T17:56:50.827Z,27.23
2023-02-09T17:59:19.960Z,29.50
2023-02-09T18:01:49.607Z,40.33
2023-02-09T18:04:19.144Z,32.90
2023-02-09T18:06:45.920Z,26.02
2023-02-09T18:09:13.288Z,30.60
2023-02-09T18:11:55.602Z,28.15
2023-02-09T18:14:25.842Z,30.85
2023-02-09T18:16:53.597Z,26.75
2023-02-09T18:19:20.341Z,28.25
2023-02-09T18:21:49.934Z,25.13
2023-02-09T18:24:17.883Z,36.33
2023-02-09T18:26:44.639Z,26.42
2023-02-09T18:29:11.299Z,27.50
2023-02-09T18:31:38.023Z,24.77
2023-02-09T18:34:04.712Z,22.77
2023-02-09T18:36:32.947Z,25.45
2023-02-09T18:38:59.927Z,23.95
2023-02-09T18:41:26.606Z,29.05
2023-02-09T18:43:54.431Z,35.15
2023-02-09T18:46:24.359Z,25.02
2023-02-09T18:48:51.668Z,22.58
2023-02-09T18:51:18.476Z,24.98
2023-02-09T18:53:45.113Z,22.30
2023-02-09T18:56:21.898Z,24.35
2023-02-09T18:58:52.884Z,24.05
2023-02-09T19:01:21.438Z,26.27
2023-02-09T19:03:52.030Z,28.52
2023-02-09T19:06:20.457Z,25.48
2023-02-09T19:08:48.149Z,24.67
2023-02-09T19:11:16.892Z,28.92
2023-02-09T19:14:03.750Z,32.58
2023-02-09T19:16:30.680Z,25.65
2023-02-09T19:18:58.808Z,31.88
2023-02-09T19:21:25.474Z,26.77
2023-02-09T19:23:54.689Z,31.20
2023-02-09T19:26:21.856Z,34.65
2023-02-09T19:28:48.675Z,33.78
2023-02-09T19:31:19.094Z,29.83
2023-02-09T19:33:45.810Z,27.20
2023-02-09T19:36:12.634Z,32.03
2023-02-09T19:38:39.342Z,24.08
2023-02-09T19:41:11.796Z,29.55
2023-02-09T19:43:41.786Z,30.33
2023-02-09T19:46:10.239Z,26.85
2023-02-09T19:48:40.552Z,26.83
2023-02-09T19:51:08.680Z,27.42
2023-02-09T19:53:35.460Z,31.92
2023-02-09T19:56:02.153Z,25.23
2023-02-09T19:58:29.027Z,25.02
2023-02-09T20:00:56.338Z,30.60
2023-02-09T20:03:23.941Z,28.58
2023-02-09T20:05:50.728Z,28.17
2023-02-09T20:08:19.400Z,34.20
2023-02-09T20:10:46.727Z,30.50
2023-02-09T20:13:15.690Z,29.25
2023-02-09T20:15:43.552Z,29.23
2023-02-09T20:18:11.447Z,27.88
2023-02-09T20:20:43.909Z,35.35
2023-02-09T20:23:10.916Z,33.72
2023-02-09T20:25:41.747Z,31.70
2023-02-09T20:28:08.858Z,33.50
2023-02-09T20:30:35.583Z,36.22
2023-02-09T20:33:02.333Z,37.42
2023-02-09T20:35:29.016Z,37.30
2023-02-09T20:37:55.697Z,34.35
2023-02-09T20:40:22.682Z,39.55
2023-02-09T20:43:10.214Z,41.80
2023-02-09T20:45:55.504Z,43.90
2023-02-09T20:48:22.134Z,40.58
2023-02-09T20:50:49.117Z,39.83
2023-02-09T20:53:15.889Z,46.30
2023-02-09T20:55:42.891Z,41.78
2023-02-09T20:58:13.571Z,45.45
2023-02-09T21:00:43.537Z,45.92
2023-02-09T21:03:10.714Z,43.72
2023-02-09T21:05:39.002Z,39.67
2023-02-09T21:08:07.747Z,48.67
2023-02-09T21:10:35.821Z,46.15
2023-02-09T21:13:04.270Z,47.22
2023-02-09T21:15:31.054Z,40.92
2023-02-09T21:17:57.725Z,45.35
2023-02-09T21:20:24.452Z,47.20
2023-02-09T21:22:51.843Z,42.40
2023-02-09T21:25:19.310Z,46.63
2023-02-09T21:27:46.002Z,44.67
2023-02-09T21:30:13.321Z,39.20
2023-02-09T21:32:40.072Z,39.83
2023-02-09T21:35:10.187Z,44.30
2023-02-09T21:37:42.920Z,43.05
2023-02-09T21:40:11.492Z,39.15
2023-02-09T21:42:39.343Z,44.47
2023-02-09T21:45:07.998Z,45.33
2023-02-09T21:47:37.243Z,42.83
2023-02-09T21:50:04.956Z,46.15
2023-02-09T21:52:31.823Z,39.63
2023-02-09T21:54:58.464Z,44.83
2023-02-09T21:57:26.136Z,39.05
2023-02-09T21:59:53.343Z,51.42
2023-02-09T22:02:20.421Z,48.72
2023-02-09T22:04:47.408Z,46.05
2023-02-09T22:07:14.620Z,47.65
2023-02-09T22:09:41.572Z,47.50
2023-02-09T22:12:08.546Z,47.75
2023-02-09T22:14:35.404Z,38.80
2023-02-09T22:17:02.187Z,41.60
2023-02-09T22:19:28.930Z,41.75
2023-02-09T22:21:57.981Z,42.67
2023-02-09T22:24:25.287Z,48.30
2023-02-09T22:26:52.099Z,46.10
2023-02-09T22:29:19.328Z,47.92
2023-02-09T22:31:46.152Z,42.40
2023-02-09T22:34:12.872Z,44.97
2023-02-09T22:36:39.940Z,50.55
2023-02-09T22:39:07.266Z,46.05
2023-02-09T22:41:33.919Z,50.25
2023-02-09T22:44:03.409Z,48.90
2023-02-09T22:46:35.706Z,55.25
2023-02-09T22:49:07.606Z,48.78
2023-02-09T22:51:35.482Z,49.50
2023-02-09T22:54:02.758Z,49.33
2023-02-09T22:56:29.915Z,58.92
2023-02-09T22:58:57.530Z,55.78
2023-02-09T23:01:24.452Z,53.22
2023-02-09T23:03:51.211Z,54.40
2023-02-09T23:06:20.604Z,54.00
2023-02-09T23:08:47.264Z,50.97
2023-02-09T23:11:16.873Z,53.58
2023-02-09T23:13:45.815Z,59.40
2023-02-09T23:16:24.751Z,51.15
2023-02-09T23:18:56.709Z,54.60
2023-02-09T23:21:26.163Z,54.30
2023-02-09T23:23:53.544Z,55.85
2023-02-09T23:26:21.094Z,53.28
2023-02-09T23:28:48.264Z,55.83
2023-02-09T23:31:17.636Z,51.13
2023-02-09T23:33:44.963Z,54.65
2023-02-09T23:36:14.884Z,56.03
2023-02-09T23:38:41.549Z,54.00
2023-02-09T23:41:12.924Z,60.08
2023-02-09T23:43:40.110Z,58.67
2023-02-09T23:46:10.207Z,58.80
2023-02-09T23:48:36.918Z,49.42
2023-02-09T23:51:05.759Z,53.20
2023-02-09T23:53:33.025Z,51.83
2023-02-09T23:56:03.815Z,53.35
2023-02-09T23:58:38.366Z,56.53
